KTRL/TRL METAR and TAF weather

Enter ICAO airport designator
Station Type Date Time Source
KTRL METAR 2021/01/22 06:02 UTC NOAA

KTRL 220602Z AUTO 06003KT 1/2SM FG VV003 09/09 A2993 RMK AO2 T00890089


Station Type Date Time Source
KTRL Decoded METAR 2021/01/22 06:02 UTC NOAA

TERRELL MUNICIPAL AIRPORT, TX, United States (KTRL) 32-43N 96-16W 144M
Jan 22, 2021 - 01:02 AM EST / 2021.01.22 0602 UTC
Wind: from the ENE (060 degrees) at 3 MPH (3 KT):0
Visibility: 1/2 mile(s):0
Sky conditions: obscured
Weather: fog
Temperature: 48.0 F (8.9 C)
Dew Point: 48.0 F (8.9 C)
Relative Humidity: 100%
Pressure (altimeter): 29.93 in. Hg (1013 hPa)
ob: KTRL 220602Z AUTO 06003KT 1/2SM FG VV003 09/09 A2993 RMK AO2 T00890089
cycle: 6

Station Type Date Time Source
KTRL TAF UTC NOAA

Error!

Example: see airport list